METAR Reports

Area Airport Weather Conditions

KBDL - Windsor Locks, Connecticut, USA
Distance from station: NE 45mi, 72km
Updated: 1:51PM EST, January 28, 2020
Overcast
Overcast
 Wind from NW
Wind: NW 13 mph , 20 km/h
Temperature: 37°F , 3°C
Wind Chill: 29°F , -2°C
Dew Point: 23°F , -5°C
Humidity: 56%
Barometer: 29.76 inHg , 1007.8 hPa
Clouds: Overcast
Visibility: 10 miles , 16 km
Cloud details: Overcast 3600 ft
2020/01/28 18:51 KBDL 281851Z 31011KT 10SM OVC036 03/M05 A2976 RMK AO2 SLP080 T00281050
KDXR - Danbury, Connecticut, USA
Distance from station: SSW 15mi, 24km
Updated: 1:53PM EST, January 28, 2020
Overcast
Overcast
 Wind from NNW
Wind: NNW 10 mph , 17 km/h
Temperature: 37°F , 3°C
Wind Chill: 30°F , -1°C
Dew Point: 25°F , -4°C
Humidity: 60%
Barometer: 29.78 inHg , 1008.5 hPa
Clouds: Overcast
Visibility: 10 miles , 16 km
Cloud details: Overcast 3300 ft
2020/01/28 18:53 KDXR 281853Z 33009KT 10SM OVC033 03/M04 A2978 RMK AO2 SLP087 T00281044
 
KOXC - Oxford/Waterbury, Connecticut, USA
Distance from station: ESE 16mi, 26km
Updated: 2:15PM EST, January 28, 2020
Overcast
Overcast
 Wind from NW
Wind: NW 8 mph , 13 km/h, Gust: 16 mph , 26 km/h
Temperature: 36°F , 2°C
Wind Chill: 30°F , -1°C
Dew Point: 25°F , -4°C
Humidity: 65%
Barometer: 29.76 inHg , 1007.8 hPa
Clouds: Overcast
Visibility: 10 miles , 16 km
Cloud details: Overcast 3000 ft
2020/01/28 19:15 KOXC 281915Z 32007G14KT 10SM OVC030 02/M04 A2976 RMK AO2
KPOU - Poughkeepsie, New York, USA
Distance from station: W 25mi, 40km
Updated: 1:53PM EST, January 28, 2020
Overcast
Overcast
 Wind from NNW
Wind: NNW 13 mph , 20 km/h, Gust: 20 mph , 31 km/h
Temperature: 39°F , 4°C
Wind Chill: 31°F , -1°C
Dew Point: 23°F , -5°C
Humidity: 52%
Barometer: 29.79 inHg , 1008.8 hPa
Clouds: Overcast
Visibility: 10 miles , 16 km
Cloud details: Overcast 4000 ft
2020/01/28 18:53 KPOU 281853Z 33011G17KT 10SM OVC040 04/M05 A2979 RMK AO2 SLP085 T00391050
 
KMMK - Meriden, Connecticut, USA
Distance from station: E 30mi, 48km
Updated: 1:53PM EST, January 28, 2020
Overcast
Overcast
 
Temperature: 39°F , 4°C
Dew Point: 23°F , -5°C
Humidity: 52%
Barometer: 29.77 inHg , 1008.1 hPa
Clouds: Overcast
Visibility: 10 miles , 16 km
Cloud details: Overcast 4300 ft
2020/01/28 18:53 KMMK 281853Z AUTO 10SM OVC043 04/M05 A2977 RMK AO2 SLP081 T00391050
KBDR - Bridgeport, Connecticut, USA
Distance from station: SSE 32mi, 51km
Updated: 1:52PM EST, January 28, 2020
Overcast
Overcast
 Wind from NNW
Wind: NNW 9 mph , 15 km/h
Temperature: 39°F , 4°C
Wind Chill: 33°F , 1°C
Dew Point: 27°F , -3°C
Humidity: 61%
Barometer: 29.78 inHg , 1008.5 hPa
Clouds: Overcast
Visibility: 10 miles , 16 km
Cloud details: Overcast 3600 ft
2020/01/28 18:52 KBDR 281852Z 33008KT 10SM OVC036 04/M03 A2978 RMK AO2 SLP083 T00441033
 
KHVN - New Haven/Tweed, Connecticut, USA
Distance from station: SE 35mi, 57km
Updated: 1:53PM EST, January 28, 2020
Overcast
Overcast
 Wind from NW
Wind: NW 10 mph , 17 km/h
Temperature: 43°F , 6°C
Wind Chill: 37°F , 3°C
Dew Point: 27°F , -3°C
Humidity: 53%
Barometer: 29.77 inHg , 1008.1 hPa
Clouds: Overcast
Visibility: 10 miles , 16 km
Cloud details: Overcast 3900 ft
2020/01/28 18:53 KHVN 281853Z 32009KT 10SM OVC039 06/M03 A2977 RMK AO2 SLP080 T00561033 $
KSWF - Newburgh/Stewart, New York, USA
Distance from station: W 35mi, 57km
Updated: 1:45PM EST, January 28, 2020
Overcast
Overcast
 Wind from NNW
Wind: NNW 16 mph , 26 km/h, Gust: 23 mph , 37 km/h
Temperature: 37°F , 3°C
Wind Chill: 28°F , -2°C
Dew Point: 27°F , -3°C
Humidity: 65%
Barometer: 29.79 inHg , 1008.8 hPa
Clouds: Overcast
Visibility: 10 miles , 16 km
Cloud details: Overcast 3500 ft
2020/01/28 18:45 KSWF 281845Z 33014G20KT 10SM OVC035 03/M03 A2979
 
KHPN - White Plains, New York, USA
Distance from station: SSW 38mi, 62km
Updated: 1:56PM EST, January 28, 2020
Mostly cloudy
Mostly cloudy
 Wind from WNW
Wind: WNW 16 mph , 26 km/h, Gust: 23 mph , 37 km/h
Temperature: 39°F , 4°C
Wind Chill: 30°F , -1°C
Dew Point: 23°F , -5°C
Humidity: 52%
Barometer: 29.77 inHg , 1008.1 hPa
Clouds: Mostly cloudy
Visibility: 10 miles , 16 km
Cloud details: Mostly cloudy 3700 ft
2020/01/28 18:56 KHPN 281856Z 30014G20KT 10SM BKN037 04/M05 A2977 RMK AO2 SLP087 T00391050
KHFD - Hartford/Brainar, Connecticut, USA
Distance from station: ENE 41mi, 65km
Updated: 1:53PM EST, January 28, 2020
Overcast
Overcast
 Wind from N
Wind: N 9 mph , 15 km/h
Temperature: 37°F , 3°C
Wind Chill: 30°F , -1°C
Dew Point: 25°F , -4°C
Humidity: 60%
Barometer: 29.77 inHg , 1008.1 hPa
Clouds: Overcast
Visibility: 10 miles , 16 km
Cloud details: Overcast 3700 ft
2020/01/28 18:53 KHFD 281853Z 35008KT 10SM OVC037 03/M04 A2977 RMK AO2 SLP081 T00331044